sensor_id;sensor_type;location;lat;lon;timestamp;P1;durP1;ratioP1;P2;durP2;ratioP2
5569;SDS011;2808;51.240;6.794;2022-10-26T00:00:25;10.60;;;2.20;;
5569;SDS011;2808;51.240;6.794;2022-10-26T00:02:54;7.50;;;2.20;;
5569;SDS011;2808;51.240;6.794;2022-10-26T00:05:22;6.80;;;2.60;;
5569;SDS011;2808;51.240;6.794;2022-10-26T00:07:50;7.83;;;2.20;;
5569;SDS011;2808;51.240;6.794;2022-10-26T00:10:19;10.27;;;2.87;;
5569;SDS011;2808;51.240;6.794;2022-10-26T00:12:47;9.10;;;2.77;;
5569;SDS011;2808;51.240;6.794;2022-10-26T00:15:17;11.83;;;2.13;;
5569;SDS011;2808;51.240;6.794;2022-10-26T00:17:44;6.03;;;2.17;;
5569;SDS011;2808;51.240;6.794;2022-10-26T00:20:13;8.30;;;2.60;;
5569;SDS011;2808;51.240;6.794;2022-10-26T00:22:41;17.23;;;2.43;;
5569;SDS011;2808;51.240;6.794;2022-10-26T00:25:08;7.97;;;2.67;;
5569;SDS011;2808;51.240;6.794;2022-10-26T00:27:36;11.93;;;2.33;;
5569;SDS011;2808;51.240;6.794;2022-10-26T00:30:06;4.33;;;1.77;;
5569;SDS011;2808;51.240;6.794;2022-10-26T00:32:36;15.50;;;2.63;;
5569;SDS011;2808;51.240;6.794;2022-10-26T00:35:05;6.00;;;2.23;;
5569;SDS011;2808;51.240;6.794;2022-10-26T00:37:33;8.13;;;2.50;;
5569;SDS011;2808;51.240;6.794;2022-10-26T00:40:00;5.87;;;2.20;;
5569;SDS011;2808;51.240;6.794;2022-10-26T00:42:28;8.43;;;2.40;;
5569;SDS011;2808;51.240;6.794;2022-10-26T00:44:56;7.17;;;2.20;;
5569;SDS011;2808;51.240;6.794;2022-10-26T00:47:32;9.50;;;2.10;;
5569;SDS011;2808;51.240;6.794;2022-10-26T00:50:06;7.40;;;2.07;;
5569;SDS011;2808;51.240;6.794;2022-10-26T00:52:36;5.80;;;2.00;;
5569;SDS011;2808;51.240;6.794;2022-10-26T00:55:05;4.17;;;1.90;;
5569;SDS011;2808;51.240;6.794;2022-10-26T00:57:33;9.53;;;2.03;;
5569;SDS011;2808;51.240;6.794;2022-10-26T01:00:03;8.00;;;2.67;;
5569;SDS011;2808;51.240;6.794;2022-10-26T01:02:32;4.50;;;2.13;;
5569;SDS011;2808;51.240;6.794;2022-10-26T01:05:02;6.67;;;2.00;;
5569;SDS011;2808;51.240;6.794;2022-10-26T01:07:31;7.53;;;2.00;;
5569;SDS011;2808;51.240;6.794;2022-10-26T01:09:59;6.23;;;2.80;;
5569;SDS011;2808;51.240;6.794;2022-10-26T01:12:27;7.57;;;2.00;;
5569;SDS011;2808;51.240;6.794;2022-10-26T01:14:54;6.27;;;2.33;;
5569;SDS011;2808;51.240;6.794;2022-10-26T01:17:27;8.30;;;1.90;;
5569;SDS011;2808;51.240;6.794;2022-10-26T01:23:03;9.57;;;2.53;;
5569;SDS011;2808;51.240;6.794;2022-10-26T01:28:33;7.43;;;2.20;;
5569;SDS011;2808;51.240;6.794;2022-10-26T01:31:14;7.13;;;2.10;;
5569;SDS011;2808;51.240;6.794;2022-10-26T01:33:49;9.80;;;2.90;;
5569;SDS011;2808;51.240;6.794;2022-10-26T01:36:26;7.03;;;2.27;;
5569;SDS011;2808;51.240;6.794;2022-10-26T01:39:00;7.40;;;1.70;;
5569;SDS011;2808;51.240;6.794;2022-10-26T01:41:32;5.40;;;1.80;;
5569;SDS011;2808;51.240;6.794;2022-10-26T01:44:03;6.47;;;1.80;;
5569;SDS011;2808;51.240;6.794;2022-10-26T01:46:36;6.43;;;2.00;;
5569;SDS011;2808;51.240;6.794;2022-10-26T01:49:07;6.93;;;2.10;;
5569;SDS011;2808;51.240;6.794;2022-10-26T01:51:36;6.93;;;2.43;;
5569;SDS011;2808;51.240;6.794;2022-10-26T01:54:05;5.40;;;2.10;;
5569;SDS011;2808;51.240;6.794;2022-10-26T01:56:33;9.27;;;1.77;;
5569;SDS011;2808;51.240;6.794;2022-10-26T02:05:15;6.67;;;2.20;;
5569;SDS011;2808;51.240;6.794;2022-10-26T02:08:01;6.93;;;1.73;;
5569;SDS011;2808;51.240;6.794;2022-10-26T02:10:38;9.93;;;2.50;;
5569;SDS011;2808;51.240;6.794;2022-10-26T02:13:14;7.73;;;2.17;;
5569;SDS011;2808;51.240;6.794;2022-10-26T02:15:47;6.47;;;1.80;;
5569;SDS011;2808;51.240;6.794;2022-10-26T02:18:22;9.23;;;2.23;;
5569;SDS011;2808;51.240;6.794;2022-10-26T02:20:56;10.17;;;2.10;;
5569;SDS011;2808;51.240;6.794;2022-10-26T02:23:28;4.50;;;1.80;;
5569;SDS011;2808;51.240;6.794;2022-10-26T02:25:59;7.80;;;1.90;;
5569;SDS011;2808;51.240;6.794;2022-10-26T02:28:32;8.00;;;2.10;;
5569;SDS011;2808;51.240;6.794;2022-10-26T02:31:04;5.67;;;1.87;;
5569;SDS011;2808;51.240;6.794;2022-10-26T02:33:35;4.03;;;1.40;;
5569;SDS011;2808;51.240;6.794;2022-10-26T02:36:06;5.20;;;1.50;;
5569;SDS011;2808;51.240;6.794;2022-10-26T02:38:36;7.70;;;1.80;;
5569;SDS011;2808;51.240;6.794;2022-10-26T02:41:07;10.90;;;1.90;;
5569;SDS011;2808;51.240;6.794;2022-10-26T02:43:40;12.10;;;1.90;;
5569;SDS011;2808;51.240;6.794;2022-10-26T02:46:13;5.00;;;1.60;;
5569;SDS011;2808;51.240;6.794;2022-10-26T02:48:44;9.20;;;1.90;;
5569;SDS011;2808;51.240;6.794;2022-10-26T02:51:12;7.70;;;2.07;;
5569;SDS011;2808;51.240;6.794;2022-10-26T02:53:45;13.23;;;1.87;;
5569;SDS011;2808;51.240;6.794;2022-10-26T02:56:20;8.00;;;2.07;;
5569;SDS011;2808;51.240;6.794;2022-10-26T02:58:51;11.50;;;1.70;;
5569;SDS011;2808;51.240;6.794;2022-10-26T03:01:21;8.37;;;1.90;;
5569;SDS011;2808;51.240;6.794;2022-10-26T03:03:50;6.43;;;1.77;;
5569;SDS011;2808;51.240;6.794;2022-10-26T03:06:23;7.00;;;1.70;;
5569;SDS011;2808;51.240;6.794;2022-10-26T03:08:52;7.30;;;1.93;;
5569;SDS011;2808;51.240;6.794;2022-10-26T03:11:19;7.00;;;1.63;;
5569;SDS011;2808;51.240;6.794;2022-10-26T03:13:47;5.70;;;2.00;;
5569;SDS011;2808;51.240;6.794;2022-10-26T03:16:14;9.00;;;1.80;;
5569;SDS011;2808;51.240;6.794;2022-10-26T03:18:41;13.43;;;2.13;;
5569;SDS011;2808;51.240;6.794;2022-10-26T03:21:10;6.30;;;1.90;;
5569;SDS011;2808;51.240;6.794;2022-10-26T03:23:38;6.77;;;2.07;;
5569;SDS011;2808;51.240;6.794;2022-10-26T03:26:06;6.80;;;1.80;;
5569;SDS011;2808;51.240;6.794;2022-10-26T03:28:33;5.10;;;1.93;;
5569;SDS011;2808;51.240;6.794;2022-10-26T03:31:00;9.40;;;1.90;;
5569;SDS011;2808;51.240;6.794;2022-10-26T03:33:28;8.73;;;2.00;;
5569;SDS011;2808;51.240;6.794;2022-10-26T03:35:55;7.80;;;2.37;;
5569;SDS011;2808;51.240;6.794;2022-10-26T03:38:24;10.83;;;2.20;;
5569;SDS011;2808;51.240;6.794;2022-10-26T03:40:52;13.37;;;2.17;;
5569;SDS011;2808;51.240;6.794;2022-10-26T03:43:19;11.03;;;1.93;;
5569;SDS011;2808;51.240;6.794;2022-10-26T03:45:47;6.37;;;2.10;;
5569;SDS011;2808;51.240;6.794;2022-10-26T03:48:14;9.77;;;2.30;;
5569;SDS011;2808;51.240;6.794;2022-10-26T03:50:42;7.90;;;1.90;;
5569;SDS011;2808;51.240;6.794;2022-10-26T03:53:10;7.30;;;2.00;;
5569;SDS011;2808;51.240;6.794;2022-10-26T03:55:38;10.10;;;1.90;;
5569;SDS011;2808;51.240;6.794;2022-10-26T03:58:08;8.50;;;1.80;;
5569;SDS011;2808;51.240;6.794;2022-10-26T04:00:36;6.10;;;1.70;;
5569;SDS011;2808;51.240;6.794;2022-10-26T04:03:03;5.30;;;1.80;;
5569;SDS011;2808;51.240;6.794;2022-10-26T04:05:31;5.93;;;1.70;;
5569;SDS011;2808;51.240;6.794;2022-10-26T04:08:00;13.60;;;1.73;;
5569;SDS011;2808;51.240;6.794;2022-10-26T04:10:28;10.20;;;1.90;;
5569;SDS011;2808;51.240;6.794;2022-10-26T04:12:57;11.27;;;1.87;;
5569;SDS011;2808;51.240;6.794;2022-10-26T04:15:25;7.57;;;1.93;;
5569;SDS011;2808;51.240;6.794;2022-10-26T04:17:56;9.33;;;2.80;;
5569;SDS011;2808;51.240;6.794;2022-10-26T04:20:25;6.97;;;2.30;;
5569;SDS011;2808;51.240;6.794;2022-10-26T04:22:57;7.50;;;2.17;;
5569;SDS011;2808;51.240;6.794;2022-10-26T04:25:25;6.37;;;2.80;;
5569;SDS011;2808;51.240;6.794;2022-10-26T04:27:54;7.27;;;2.03;;
5569;SDS011;2808;51.240;6.794;2022-10-26T04:30:22;12.97;;;2.03;;
5569;SDS011;2808;51.240;6.794;2022-10-26T04:32:50;6.57;;;1.90;;
5569;SDS011;2808;51.240;6.794;2022-10-26T04:35:17;8.20;;;2.10;;
5569;SDS011;2808;51.240;6.794;2022-10-26T04:37:45;8.93;;;2.03;;
5569;SDS011;2808;51.240;6.794;2022-10-26T04:40:12;9.60;;;2.37;;
5569;SDS011;2808;51.240;6.794;2022-10-26T04:42:41;9.20;;;2.30;;
5569;SDS011;2808;51.240;6.794;2022-10-26T04:45:10;6.77;;;1.70;;
5569;SDS011;2808;51.240;6.794;2022-10-26T04:47:38;5.67;;;1.60;;
5569;SDS011;2808;51.240;6.794;2022-10-26T04:50:06;9.70;;;1.80;;
5569;SDS011;2808;51.240;6.794;2022-10-26T04:52:35;8.60;;;1.90;;
5569;SDS011;2808;51.240;6.794;2022-10-26T04:55:03;6.77;;;1.77;;
5569;SDS011;2808;51.240;6.794;2022-10-26T04:57:31;7.30;;;2.07;;
5569;SDS011;2808;51.240;6.794;2022-10-26T04:59:59;7.53;;;1.77;;
5569;SDS011;2808;51.240;6.794;2022-10-26T05:02:28;5.00;;;1.93;;
5569;SDS011;2808;51.240;6.794;2022-10-26T05:04:56;8.57;;;2.17;;
5569;SDS011;2808;51.240;6.794;2022-10-26T05:07:23;9.20;;;2.23;;
5569;SDS011;2808;51.240;6.794;2022-10-26T05:09:51;8.73;;;1.87;;
5569;SDS011;2808;51.240;6.794;2022-10-26T05:12:18;6.73;;;2.13;;
5569;SDS011;2808;51.240;6.794;2022-10-26T05:14:46;11.47;;;2.10;;
5569;SDS011;2808;51.240;6.794;2022-10-26T05:17:14;7.67;;;1.90;;
5569;SDS011;2808;51.240;6.794;2022-10-26T05:19:43;9.90;;;2.27;;
5569;SDS011;2808;51.240;6.794;2022-10-26T05:22:16;9.10;;;2.00;;
5569;SDS011;2808;51.240;6.794;2022-10-26T05:24:44;11.43;;;2.20;;
5569;SDS011;2808;51.240;6.794;2022-10-26T05:27:11;4.80;;;2.07;;
5569;SDS011;2808;51.240;6.794;2022-10-26T05:29:39;7.80;;;2.37;;
5569;SDS011;2808;51.240;6.794;2022-10-26T05:32:06;7.33;;;2.73;;
5569;SDS011;2808;51.240;6.794;2022-10-26T05:34:34;7.57;;;2.20;;
5569;SDS011;2808;51.240;6.794;2022-10-26T05:37:02;8.40;;;2.10;;
5569;SDS011;2808;51.240;6.794;2022-10-26T05:39:30;4.60;;;1.90;;
5569;SDS011;2808;51.240;6.794;2022-10-26T05:41:57;6.53;;;1.90;;
5569;SDS011;2808;51.240;6.794;2022-10-26T05:44:24;8.80;;;2.20;;
5569;SDS011;2808;51.240;6.794;2022-10-26T05:46:52;18.73;;;2.57;;
5569;SDS011;2808;51.240;6.794;2022-10-26T05:49:19;5.77;;;2.10;;
5569;SDS011;2808;51.240;6.794;2022-10-26T05:51:47;7.13;;;2.20;;
5569;SDS011;2808;51.240;6.794;2022-10-26T05:54:15;13.27;;;2.73;;
5569;SDS011;2808;51.240;6.794;2022-10-26T05:56:43;7.57;;;2.50;;
5569;SDS011;2808;51.240;6.794;2022-10-26T05:59:11;13.57;;;2.70;;
5569;SDS011;2808;51.240;6.794;2022-10-26T06:01:50;12.53;;;2.23;;
5569;SDS011;2808;51.240;6.794;2022-10-26T06:05:06;8.33;;;2.03;;
5569;SDS011;2808;51.240;6.794;2022-10-26T06:08:07;8.47;;;2.53;;
5569;SDS011;2808;51.240;6.794;2022-10-26T06:11:06;6.30;;;1.90;;
5569;SDS011;2808;51.240;6.794;2022-10-26T06:13:46;10.43;;;2.20;;
5569;SDS011;2808;51.240;6.794;2022-10-26T06:16:35;9.03;;;2.07;;
5569;SDS011;2808;51.240;6.794;2022-10-26T06:19:31;6.07;;;1.70;;
5569;SDS011;2808;51.240;6.794;2022-10-26T06:26:06;4.50;;;1.70;;
5569;SDS011;2808;51.240;6.794;2022-10-26T06:28:49;5.60;;;2.10;;
5569;SDS011;2808;51.240;6.794;2022-10-26T06:31:54;5.90;;;2.13;;
5569;SDS011;2808;51.240;6.794;2022-10-26T06:34:33;9.07;;;2.20;;
5569;SDS011;2808;51.240;6.794;2022-10-26T06:37:04;7.73;;;2.20;;
5569;SDS011;2808;51.240;6.794;2022-10-26T06:39:43;5.93;;;2.17;;
5569;SDS011;2808;51.240;6.794;2022-10-26T06:42:40;4.70;;;1.97;;
5569;SDS011;2808;51.240;6.794;2022-10-26T06:45:15;8.43;;;2.10;;
5569;SDS011;2808;51.240;6.794;2022-10-26T06:48:01;5.70;;;1.87;;
5569;SDS011;2808;51.240;6.794;2022-10-26T06:50:43;8.00;;;2.43;;
5569;SDS011;2808;51.240;6.794;2022-10-26T06:53:32;6.40;;;2.30;;
5569;SDS011;2808;51.240;6.794;2022-10-26T06:56:17;6.77;;;2.43;;
5569;SDS011;2808;51.240;6.794;2022-10-26T06:58:59;8.20;;;2.27;;
5569;SDS011;2808;51.240;6.794;2022-10-26T07:01:34;7.00;;;1.77;;
5569;SDS011;2808;51.240;6.794;2022-10-26T07:14:47;6.73;;;2.20;;
5569;SDS011;2808;51.240;6.794;2022-10-26T07:26:58;9.70;;;2.50;;
5569;SDS011;2808;51.240;6.794;2022-10-26T07:35:28;10.50;;;2.47;;
5569;SDS011;2808;51.240;6.794;2022-10-26T07:38:12;9.70;;;2.60;;
5569;SDS011;2808;51.240;6.794;2022-10-26T07:40:43;9.97;;;2.30;;
5569;SDS011;2808;51.240;6.794;2022-10-26T07:43:33;12.63;;;3.00;;
5569;SDS011;2808;51.240;6.794;2022-10-26T07:46:06;9.90;;;2.70;;
5569;SDS011;2808;51.240;6.794;2022-10-26T07:48:37;8.33;;;2.43;;
5569;SDS011;2808;51.240;6.794;2022-10-26T07:51:06;10.87;;;2.20;;
5569;SDS011;2808;51.240;6.794;2022-10-26T07:53:34;8.80;;;2.53;;
5569;SDS011;2808;51.240;6.794;2022-10-26T07:56:04;13.80;;;2.37;;
5569;SDS011;2808;51.240;6.794;2022-10-26T07:58:35;6.77;;;2.20;;
5569;SDS011;2808;51.240;6.794;2022-10-26T08:01:08;9.73;;;2.10;;
5569;SDS011;2808;51.240;6.794;2022-10-26T08:03:36;9.50;;;2.23;;
5569;SDS011;2808;51.240;6.794;2022-10-26T08:06:06;6.90;;;2.10;;
5569;SDS011;2808;51.240;6.794;2022-10-26T08:08:50;4.77;;;2.13;;
5569;SDS011;2808;51.240;6.794;2022-10-26T08:12:00;13.50;;;2.80;;
5569;SDS011;2808;51.240;6.794;2022-10-26T08:14:32;7.93;;;2.23;;
5569;SDS011;2808;51.240;6.794;2022-10-26T08:17:18;4.77;;;2.30;;
5569;SDS011;2808;51.240;6.794;2022-10-26T08:20:12;10.13;;;2.33;;
5569;SDS011;2808;51.240;6.794;2022-10-26T08:23:00;5.83;;;2.17;;
5569;SDS011;2808;51.240;6.794;2022-10-26T08:25:44;7.07;;;2.10;;
5569;SDS011;2808;51.240;6.794;2022-10-26T08:28:28;9.50;;;2.37;;
5569;SDS011;2808;51.240;6.794;2022-10-26T08:34:39;6.53;;;2.20;;
5569;SDS011;2808;51.240;6.794;2022-10-26T08:45:21;10.87;;;2.07;;
5569;SDS011;2808;51.240;6.794;2022-10-26T08:47:52;12.73;;;2.67;;
5569;SDS011;2808;51.240;6.794;2022-10-26T08:50:25;7.77;;;2.10;;
5569;SDS011;2808;51.240;6.794;2022-10-26T08:52:57;8.17;;;2.27;;
5569;SDS011;2808;51.240;6.794;2022-10-26T08:55:31;7.00;;;2.00;;
5569;SDS011;2808;51.240;6.794;2022-10-26T08:58:11;8.50;;;2.30;;
5569;SDS011;2808;51.240;6.794;2022-10-26T09:00:43;12.60;;;2.50;;
5569;SDS011;2808;51.240;6.794;2022-10-26T09:03:20;12.50;;;2.17;;
5569;SDS011;2808;51.240;6.794;2022-10-26T09:05:55;8.63;;;2.63;;
5569;SDS011;2808;51.240;6.794;2022-10-26T09:08:36;6.20;;;2.23;;
5569;SDS011;2808;51.240;6.794;2022-10-26T09:11:12;12.47;;;2.20;;
5569;SDS011;2808;51.240;6.794;2022-10-26T09:14:03;7.43;;;2.80;;
5569;SDS011;2808;51.240;6.794;2022-10-26T09:16:39;8.40;;;2.10;;
5569;SDS011;2808;51.240;6.794;2022-10-26T09:19:22;8.53;;;2.17;;
5569;SDS011;2808;51.240;6.794;2022-10-26T09:22:06;8.83;;;2.60;;
5569;SDS011;2808;51.240;6.794;2022-10-26T09:24:37;6.60;;;2.03;;
5569;SDS011;2808;51.240;6.794;2022-10-26T09:27:11;11.80;;;2.30;;
5569;SDS011;2808;51.240;6.794;2022-10-26T09:29:45;6.53;;;2.10;;
5569;SDS011;2808;51.240;6.794;2022-10-26T09:32:16;6.70;;;2.53;;
5569;SDS011;2808;51.240;6.794;2022-10-26T09:34:46;7.43;;;2.03;;
5569;SDS011;2808;51.240;6.794;2022-10-26T09:37:19;8.40;;;2.23;;
5569;SDS011;2808;51.240;6.794;2022-10-26T09:39:52;8.73;;;2.00;;
5569;SDS011;2808;51.240;6.794;2022-10-26T09:42:30;6.90;;;1.80;;
5569;SDS011;2808;51.240;6.794;2022-10-26T09:45:10;9.60;;;2.17;;
5569;SDS011;2808;51.240;6.794;2022-10-26T09:48:00;7.40;;;2.40;;
5569;SDS011;2808;51.240;6.794;2022-10-26T09:50:35;6.40;;;2.20;;
5569;SDS011;2808;51.240;6.794;2022-10-26T09:53:06;10.73;;;2.20;;
5569;SDS011;2808;51.240;6.794;2022-10-26T09:55:37;8.53;;;2.50;;
5569;SDS011;2808;51.240;6.794;2022-10-26T09:58:10;7.10;;;2.17;;
5569;SDS011;2808;51.240;6.794;2022-10-26T10:01:01;7.57;;;2.70;;
5569;SDS011;2808;51.240;6.794;2022-10-26T10:03:30;10.03;;;2.40;;
5569;SDS011;2808;51.240;6.794;2022-10-26T10:09:04;7.80;;;2.67;;
5569;SDS011;2808;51.240;6.794;2022-10-26T10:11:43;11.70;;;3.30;;
5569;SDS011;2808;51.240;6.794;2022-10-26T10:14:21;12.70;;;2.73;;
5569;SDS011;2808;51.240;6.794;2022-10-26T10:16:54;11.67;;;2.83;;
5569;SDS011;2808;51.240;6.794;2022-10-26T10:19:24;5.90;;;2.30;;
5569;SDS011;2808;51.240;6.794;2022-10-26T10:21:54;14.17;;;2.93;;
5569;SDS011;2808;51.240;6.794;2022-10-26T10:24:29;7.13;;;2.27;;
5569;SDS011;2808;51.240;6.794;2022-10-26T10:26:59;10.00;;;2.43;;
5569;SDS011;2808;51.240;6.794;2022-10-26T10:29:29;10.17;;;2.70;;
5569;SDS011;2808;51.240;6.794;2022-10-26T10:31:58;9.73;;;2.57;;
5569;SDS011;2808;51.240;6.794;2022-10-26T10:34:28;5.93;;;2.50;;
5569;SDS011;2808;51.240;6.794;2022-10-26T10:36:59;7.60;;;2.27;;
5569;SDS011;2808;51.240;6.794;2022-10-26T10:39:47;13.40;;;2.77;;
5569;SDS011;2808;51.240;6.794;2022-10-26T10:42:20;16.83;;;2.77;;
5569;SDS011;2808;51.240;6.794;2022-10-26T10:44:54;8.63;;;2.60;;
5569;SDS011;2808;51.240;6.794;2022-10-26T10:47:24;11.00;;;2.93;;
5569;SDS011;2808;51.240;6.794;2022-10-26T10:49:56;7.77;;;2.80;;
5569;SDS011;2808;51.240;6.794;2022-10-26T10:52:27;11.67;;;2.87;;
5569;SDS011;2808;51.240;6.794;2022-10-26T10:55:07;7.30;;;3.00;;
5569;SDS011;2808;51.240;6.794;2022-10-26T10:57:54;8.73;;;2.73;;
5569;SDS011;2808;51.240;6.794;2022-10-26T11:00:39;11.03;;;2.70;;
5569;SDS011;2808;51.240;6.794;2022-10-26T11:03:18;7.40;;;2.60;;
5569;SDS011;2808;51.240;6.794;2022-10-26T11:09:56;16.40;;;2.70;;
5569;SDS011;2808;51.240;6.794;2022-10-26T11:12:51;6.57;;;2.47;;
5569;SDS011;2808;51.240;6.794;2022-10-26T11:19:15;9.10;;;2.50;;
5569;SDS011;2808;51.240;6.794;2022-10-26T11:21:52;6.23;;;2.40;;
5569;SDS011;2808;51.240;6.794;2022-10-26T11:30:49;13.97;;;1.80;;
5569;SDS011;2808;51.240;6.794;2022-10-26T11:36:38;9.27;;;1.93;;
5569;SDS011;2808;51.240;6.794;2022-10-26T11:39:28;5.60;;;2.00;;
5569;SDS011;2808;51.240;6.794;2022-10-26T11:42:10;14.63;;;1.70;;
5569;SDS011;2808;51.240;6.794;2022-10-26T11:45:00;5.70;;;2.13;;
5569;SDS011;2808;51.240;6.794;2022-10-26T11:47:41;4.70;;;1.67;;
5569;SDS011;2808;51.240;6.794;2022-10-26T11:50:16;6.40;;;1.63;;
5569;SDS011;2808;51.240;6.794;2022-10-26T11:52:57;5.47;;;1.60;;
5569;SDS011;2808;51.240;6.794;2022-10-26T11:55:32;10.33;;;1.87;;
5569;SDS011;2808;51.240;6.794;2022-10-26T11:58:07;6.40;;;1.50;;
5569;SDS011;2808;51.240;6.794;2022-10-26T12:00:57;5.00;;;1.70;;
5569;SDS011;2808;51.240;6.794;2022-10-26T12:03:33;11.63;;;2.10;;
5569;SDS011;2808;51.240;6.794;2022-10-26T12:06:04;8.33;;;2.00;;
5569;SDS011;2808;51.240;6.794;2022-10-26T12:08:34;6.97;;;1.70;;
5569;SDS011;2808;51.240;6.794;2022-10-26T12:11:12;10.17;;;2.00;;
5569;SDS011;2808;51.240;6.794;2022-10-26T12:13:51;4.93;;;1.87;;
5569;SDS011;2808;51.240;6.794;2022-10-26T12:16:34;8.53;;;2.03;;
5569;SDS011;2808;51.240;6.794;2022-10-26T12:19:13;5.13;;;1.57;;
5569;SDS011;2808;51.240;6.794;2022-10-26T12:21:45;4.70;;;1.50;;
5569;SDS011;2808;51.240;6.794;2022-10-26T12:24:23;6.77;;;1.83;;
5569;SDS011;2808;51.240;6.794;2022-10-26T12:26:59;6.80;;;1.80;;
5569;SDS011;2808;51.240;6.794;2022-10-26T12:29:33;6.10;;;1.37;;
5569;SDS011;2808;51.240;6.794;2022-10-26T13:04:57;4.77;;;1.90;;
5569;SDS011;2808;51.240;6.794;2022-10-26T13:08:09;11.57;;;2.00;;
5569;SDS011;2808;51.240;6.794;2022-10-26T13:10:58;5.10;;;1.60;;
5569;SDS011;2808;51.240;6.794;2022-10-26T13:17:27;6.00;;;1.70;;
5569;SDS011;2808;51.240;6.794;2022-10-26T13:37:10;10.60;;;1.87;;
5569;SDS011;2808;51.240;6.794;2022-10-26T13:40:15;6.47;;;2.00;;
5569;SDS011;2808;51.240;6.794;2022-10-26T13:43:11;8.20;;;2.00;;
5569;SDS011;2808;51.240;6.794;2022-10-26T13:49:40;12.23;;;1.83;;
5569;SDS011;2808;51.240;6.794;2022-10-26T14:02:57;9.90;;;2.00;;
5569;SDS011;2808;51.240;6.794;2022-10-26T14:05:28;8.27;;;2.20;;
5569;SDS011;2808;51.240;6.794;2022-10-26T14:07:57;5.53;;;1.77;;
5569;SDS011;2808;51.240;6.794;2022-10-26T14:10:41;10.63;;;2.13;;
5569;SDS011;2808;51.240;6.794;2022-10-26T14:13:26;11.20;;;1.70;;
5569;SDS011;2808;51.240;6.794;2022-10-26T14:16:14;5.53;;;1.73;;
5569;SDS011;2808;51.240;6.794;2022-10-26T14:18:48;7.23;;;1.50;;
5569;SDS011;2808;51.240;6.794;2022-10-26T14:21:16;4.60;;;1.50;;
5569;SDS011;2808;51.240;6.794;2022-10-26T14:27:12;6.60;;;2.30;;
5569;SDS011;2808;51.240;6.794;2022-10-26T14:40:50;5.33;;;1.50;;
5569;SDS011;2808;51.240;6.794;2022-10-26T14:43:21;4.70;;;1.73;;
5569;SDS011;2808;51.240;6.794;2022-10-26T14:58:50;4.97;;;1.77;;
5569;SDS011;2808;51.240;6.794;2022-10-26T15:28:05;4.40;;;2.07;;
5569;SDS011;2808;51.240;6.794;2022-10-26T15:31:03;5.10;;;2.00;;
5569;SDS011;2808;51.240;6.794;2022-10-26T15:36:58;4.30;;;1.80;;
5569;SDS011;2808;51.240;6.794;2022-10-26T15:39:37;5.70;;;1.70;;
5569;SDS011;2808;51.240;6.794;2022-10-26T15:46:45;5.27;;;1.77;;
5569;SDS011;2808;51.240;6.794;2022-10-26T15:49:15;6.97;;;1.83;;
5569;SDS011;2808;51.240;6.794;2022-10-26T15:51:45;4.90;;;1.83;;
5569;SDS011;2808;51.240;6.794;2022-10-26T15:54:15;6.63;;;1.77;;
5569;SDS011;2808;51.240;6.794;2022-10-26T15:56:47;8.40;;;1.93;;
5569;SDS011;2808;51.240;6.794;2022-10-26T15:59:19;8.23;;;2.50;;
5569;SDS011;2808;51.240;6.794;2022-10-26T16:01:50;5.77;;;2.07;;
5569;SDS011;2808;51.240;6.794;2022-10-26T16:04:28;7.87;;;2.20;;
5569;SDS011;2808;51.240;6.794;2022-10-26T16:07:01;6.17;;;2.13;;
5569;SDS011;2808;51.240;6.794;2022-10-26T16:09:38;8.07;;;2.20;;
5569;SDS011;2808;51.240;6.794;2022-10-26T16:12:31;4.80;;;1.97;;
5569;SDS011;2808;51.240;6.794;2022-10-26T16:15:34;4.30;;;1.70;;
5569;SDS011;2808;51.240;6.794;2022-10-26T16:18:32;6.07;;;2.20;;
5569;SDS011;2808;51.240;6.794;2022-10-26T16:21:13;11.80;;;2.10;;
5569;SDS011;2808;51.240;6.794;2022-10-26T16:23:45;7.60;;;2.10;;
5569;SDS011;2808;51.240;6.794;2022-10-26T16:26:30;8.90;;;2.70;;
5569;SDS011;2808;51.240;6.794;2022-10-26T16:28:58;8.53;;;2.83;;
5569;SDS011;2808;51.240;6.794;2022-10-26T16:31:33;7.83;;;2.40;;
5569;SDS011;2808;51.240;6.794;2022-10-26T16:34:07;8.10;;;2.50;;
5569;SDS011;2808;51.240;6.794;2022-10-26T16:36:34;10.40;;;2.37;;
5569;SDS011;2808;51.240;6.794;2022-10-26T16:39:17;16.87;;;2.70;;
5569;SDS011;2808;51.240;6.794;2022-10-26T16:41:53;10.40;;;2.90;;
5569;SDS011;2808;51.240;6.794;2022-10-26T16:44:21;8.70;;;2.40;;
5569;SDS011;2808;51.240;6.794;2022-10-26T16:46:55;13.20;;;2.50;;
5569;SDS011;2808;51.240;6.794;2022-10-26T16:49:26;8.30;;;2.53;;
5569;SDS011;2808;51.240;6.794;2022-10-26T16:51:57;9.33;;;2.37;;
5569;SDS011;2808;51.240;6.794;2022-10-26T16:54:36;6.00;;;2.67;;
5569;SDS011;2808;51.240;6.794;2022-10-26T16:57:04;9.40;;;2.57;;
5569;SDS011;2808;51.240;6.794;2022-10-26T16:59:34;10.83;;;2.73;;
5569;SDS011;2808;51.240;6.794;2022-10-26T17:02:02;11.60;;;3.67;;
5569;SDS011;2808;51.240;6.794;2022-10-26T17:04:33;10.07;;;3.00;;
5569;SDS011;2808;51.240;6.794;2022-10-26T17:07:00;7.87;;;2.77;;
5569;SDS011;2808;51.240;6.794;2022-10-26T17:09:28;15.13;;;3.90;;
5569;SDS011;2808;51.240;6.794;2022-10-26T17:11:58;12.07;;;3.63;;
5569;SDS011;2808;51.240;6.794;2022-10-26T17:14:29;8.37;;;3.30;;
5569;SDS011;2808;51.240;6.794;2022-10-26T17:17:20;15.00;;;4.27;;
5569;SDS011;2808;51.240;6.794;2022-10-26T17:19:50;9.83;;;3.70;;
5569;SDS011;2808;51.240;6.794;2022-10-26T17:22:17;12.30;;;3.80;;
5569;SDS011;2808;51.240;6.794;2022-10-26T17:24:45;7.57;;;3.50;;
5569;SDS011;2808;51.240;6.794;2022-10-26T17:27:15;17.47;;;4.43;;
5569;SDS011;2808;51.240;6.794;2022-10-26T17:29:43;16.27;;;7.13;;
5569;SDS011;2808;51.240;6.794;2022-10-26T17:32:11;10.67;;;4.20;;
5569;SDS011;2808;51.240;6.794;2022-10-26T17:34:40;16.03;;;3.53;;
5569;SDS011;2808;51.240;6.794;2022-10-26T17:37:12;13.57;;;4.07;;
5569;SDS011;2808;51.240;6.794;2022-10-26T17:39:39;16.57;;;3.80;;
5569;SDS011;2808;51.240;6.794;2022-10-26T17:42:10;19.00;;;3.87;;
5569;SDS011;2808;51.240;6.794;2022-10-26T17:44:40;9.30;;;3.40;;
5569;SDS011;2808;51.240;6.794;2022-10-26T17:47:07;10.27;;;3.87;;
5569;SDS011;2808;51.240;6.794;2022-10-26T17:49:35;13.60;;;4.70;;
5569;SDS011;2808;51.240;6.794;2022-10-26T17:52:05;25.23;;;13.90;;
5569;SDS011;2808;51.240;6.794;2022-10-26T17:54:37;18.43;;;8.30;;
5569;SDS011;2808;51.240;6.794;2022-10-26T17:57:04;13.13;;;5.47;;
5569;SDS011;2808;51.240;6.794;2022-10-26T17:59:36;11.10;;;4.53;;
5569;SDS011;2808;51.240;6.794;2022-10-26T18:02:48;7.97;;;3.73;;
5569;SDS011;2808;51.240;6.794;2022-10-26T18:05:49;10.07;;;4.40;;
5569;SDS011;2808;51.240;6.794;2022-10-26T18:08:31;10.17;;;4.10;;
5569;SDS011;2808;51.240;6.794;2022-10-26T18:13:54;9.40;;;3.40;;
5569;SDS011;2808;51.240;6.794;2022-10-26T18:16:27;10.20;;;4.13;;
5569;SDS011;2808;51.240;6.794;2022-10-26T18:18:59;12.03;;;4.97;;
5569;SDS011;2808;51.240;6.794;2022-10-26T18:21:33;15.53;;;5.50;;
5569;SDS011;2808;51.240;6.794;2022-10-26T18:24:02;14.60;;;5.77;;
5569;SDS011;2808;51.240;6.794;2022-10-26T18:26:35;13.47;;;5.50;;
5569;SDS011;2808;51.240;6.794;2022-10-26T18:29:04;17.00;;;6.20;;
5569;SDS011;2808;51.240;6.794;2022-10-26T18:31:32;18.00;;;6.97;;
5569;SDS011;2808;51.240;6.794;2022-10-26T18:34:02;17.10;;;6.03;;
5569;SDS011;2808;51.240;6.794;2022-10-26T18:36:32;24.43;;;8.10;;
5569;SDS011;2808;51.240;6.794;2022-10-26T18:39:01;26.97;;;12.10;;
5569;SDS011;2808;51.240;6.794;2022-10-26T18:41:38;17.10;;;7.50;;
5569;SDS011;2808;51.240;6.794;2022-10-26T18:44:07;16.30;;;6.80;;
5569;SDS011;2808;51.240;6.794;2022-10-26T18:46:38;22.40;;;6.70;;
5569;SDS011;2808;51.240;6.794;2022-10-26T18:49:09;14.23;;;5.80;;
5569;SDS011;2808;51.240;6.794;2022-10-26T18:51:43;14.83;;;5.20;;
5569;SDS011;2808;51.240;6.794;2022-10-26T18:54:11;13.47;;;5.83;;
5569;SDS011;2808;51.240;6.794;2022-10-26T18:56:42;16.17;;;5.40;;
5569;SDS011;2808;51.240;6.794;2022-10-26T18:59:12;16.37;;;5.60;;
5569;SDS011;2808;51.240;6.794;2022-10-26T19:01:39;13.77;;;4.40;;
5569;SDS011;2808;51.240;6.794;2022-10-26T19:04:08;17.80;;;5.43;;
5569;SDS011;2808;51.240;6.794;2022-10-26T19:06:36;12.30;;;5.03;;
5569;SDS011;2808;51.240;6.794;2022-10-26T19:09:08;12.50;;;4.83;;
5569;SDS011;2808;51.240;6.794;2022-10-26T19:11:44;16.70;;;4.57;;
5569;SDS011;2808;51.240;6.794;2022-10-26T19:14:12;14.63;;;5.00;;
5569;SDS011;2808;51.240;6.794;2022-10-26T19:16:40;10.60;;;4.50;;
5569;SDS011;2808;51.240;6.794;2022-10-26T19:19:07;13.87;;;4.70;;